Lobo

Go HERE for most recent data if this page is not up to date.

Jump to table bottom
Date/Time Temp deg F RH % 24 Hr Snow (in) Snow Depth (in) H2O (in)
05/28 23:00 31.4 100 "NAN" 47.2 0.01
05/28 22:00 31.6 100 "NAN" 47.3 0.02
05/28 21:00 31.8 100 "NAN" 47.3 0.02
05/28 20:00 32.4 100 "NAN" 47.1 0.04
05/28 19:00 34.0 100 "NAN" 47.0 0.03
05/28 18:00 35.5 91 "NAN" 46.9 0.00
05/28 17:00 34.9 91 "NAN" 47.0 0.00
05/28 16:00 35.4 77 "NAN" 46.9 0.05
05/28 15:00 39.0 87 "NAN" 46.8 0.00
05/28 14:00 37.0 86 "NAN" 47.0 0.00
05/28 13:00 36.2 89 "NAN" 47.1 0.00
05/28 12:00 34.5 100 "NAN" 47.3 0.01
05/28 11:00 34.0 100 "NAN" 47.3 0.02
05/28 10:00 33.3 100 "NAN" 47.3 0.06
05/28 09:00 32.8 100 "NAN" 47.0 0.08
05/28 08:00 32.5 100 "NAN" 47.0 0.05
05/28 07:00 32.6 100 "NAN" 46.9 0.06
05/28 06:00 33.5 100 "NAN" 46.9 0.05
05/28 05:00 35.4 98 "NAN" 46.9 0.00
05/28 04:00 35.5 86 "NAN" 47.1 0.00
05/28 03:00 34.7 92 "NAN" 46.9 0.05
05/28 02:00 36.2 88 "NAN" 46.9 0.07
05/28 01:00 37.8 88 "NAN" 46.9 0.05
05/28 00:00 40.4 70 "NAN" 47.1 0.03
05/27 23:00 41.6 60 "NAN" 46.6 0.00
05/27 22:00 41.6 65 "NAN" 46.8 0.00
05/27 21:00 41.2 69 "NAN" 46.8 0.01
05/27 20:00 42.5 69 "NAN" 46.9 0.02
05/27 19:00 44.8 63 "NAN" 46.7 0.00
05/27 18:00 48.8 48 "NAN" 46.8 0.00
05/27 17:00 50.5 45 "NAN" 47.0 0.00
05/27 16:00 50.1 43 "NAN" 47.0 0.00
05/27 15:00 48.7 46 "NAN" 47.5 0.00
05/27 14:00 47.6 49 "NAN" 47.5 0.00
05/27 13:00 47.6 48 "NAN" 48.0 0.00
05/27 12:00 46.3 54 "NAN" 48.4 0.00
05/27 11:00 44.8 58 "NAN" 48.6 0.00
05/27 10:00 41.3 66 "NAN" 49.2 0.00
05/27 09:00 40.4 77 "NAN" 49.2 0.00
05/27 08:00 38.4 85 "NAN" 49.1 0.01
05/27 07:00 38.7 93 "NAN" 49.3 0.12
05/27 06:00 43.6 89 "NAN" 49.2 0.01
05/27 05:00 46.5 61 "NAN" 49.5 0.00
05/27 04:00 46.9 55 "NAN" 49.6 0.00
05/27 03:00 44.9 62 "NAN" 49.8 0.00
05/27 02:00 44.5 62 "NAN" 49.8 0.00
05/27 01:00 46.0 57 "NAN" 49.8 0.00
05/27 00:00 47.4 51 "NAN" 49.7 0.00
.